Hlavní strana
METAR-TAF:

METAR-TAF

Letiště :

Letiště Bologna

Bologna, Itálie

zeměpisná šířka: 44-32N, zeměpisná délka: 011-18E, výška: 36 m

Aktuální stav počasí

Zpráva byla vytvořena před 28 minutami, v 02:20 UTC
Jihojihozápadní vítr 5 kt
Teplota 23°C
Vlhkost vzduchu 53%
Tlak 1011 hPa
Viditelnost 10 km a více

METAR: LIPE 160220Z AUTO 20005KT 9999 NCD 23/13 Q1011

Čas: 04:48 (02:48 UTC)

Předpověď počasí

Zpráva byla vytvořena před 3 hodinami a 48 minutami, v 23:00 UTC
Předpověď platná od 16 v 00 UTC do 16 v 24 UTC
vítr z různých směrů 5 kt
Viditelnost 10 km a více
Žádná oblačnost pod 1500 m, nevyskytují se cumulonimby.

TAF: LIPE 152300Z 1600/1624 VRB05KT CAVOK

Stav a předpovědi počasí z více než 4 000 letišť (zprávy METAR a TAF).

Červené a žluté tečky na mapě představují dostupné meteorologické stanice.

Když kurzor umístíte na tečku, zobrazí se název stanice.

Pak kliknutím zobrazíte stav a předpověď počasí.

Chcete-li změnit mapu, kliknutím na zelené tlačítko se znaménkem +mapu přiblížíte, kliknutím na zelené tlačítko se znaménkem – mapu oddálíte a kliknutím na zelené šipky přejdete na sousední mapy.


METAR-TAF: